sensor_id;sensor_type;location;lat;lon;timestamp;pressure;altitude;pressure_sealevel;temperature;humidity
74336;BME280;62755;-33.398;-70.572;2023-10-09T00:01:50;93326.81;;;23.00;36.87
74336;BME280;62755;-33.398;-70.572;2023-10-09T00:04:19;93325.53;;;22.96;36.76
74336;BME280;62755;-33.398;-70.572;2023-10-09T00:06:50;93332.22;;;22.95;36.92
74336;BME280;62755;-33.398;-70.572;2023-10-09T00:09:23;93332.50;;;22.97;36.62
74336;BME280;62755;-33.398;-70.572;2023-10-09T00:12:00;93332.06;;;23.04;36.73
74336;BME280;62755;-33.398;-70.572;2023-10-09T00:14:37;93334.09;;;23.09;36.66
74336;BME280;62755;-33.398;-70.572;2023-10-09T00:17:07;93331.72;;;23.22;36.44
74336;BME280;62755;-33.398;-70.572;2023-10-09T00:19:46;93333.44;;;23.19;36.58
74336;BME280;62755;-33.398;-70.572;2023-10-09T00:22:18;93330.91;;;23.16;36.50
74336;BME280;62755;-33.398;-70.572;2023-10-09T00:24:59;93332.69;;;23.19;36.57
74336;BME280;62755;-33.398;-70.572;2023-10-09T00:27:48;93331.72;;;23.22;37.17
74336;BME280;62755;-33.398;-70.572;2023-10-09T00:30:18;93324.41;;;23.39;38.39
74336;BME280;62755;-33.398;-70.572;2023-10-09T00:32:48;93314.97;;;23.40;38.47
74336;BME280;62755;-33.398;-70.572;2023-10-09T00:35:26;93314.88;;;23.29;37.32
74336;BME280;62755;-33.398;-70.572;2023-10-09T00:38:07;93318.31;;;23.24;37.87
74336;BME280;62755;-33.398;-70.572;2023-10-09T00:40:44;93316.28;;;23.19;37.62
74336;BME280;62755;-33.398;-70.572;2023-10-09T00:43:14;93308.88;;;23.25;37.58
74336;BME280;62755;-33.398;-70.572;2023-10-09T00:45:47;93311.69;;;23.05;37.92
74336;BME280;62755;-33.398;-70.572;2023-10-09T00:48:18;93313.41;;;23.02;37.81
74336;BME280;62755;-33.398;-70.572;2023-10-09T00:50:58;93309.47;;;22.78;38.73
74336;BME280;62755;-33.398;-70.572;2023-10-09T00:53:28;93316.09;;;22.97;38.71
74336;BME280;62755;-33.398;-70.572;2023-10-09T00:56:02;93313.09;;;22.95;38.74
74336;BME280;62755;-33.398;-70.572;2023-10-09T00:58:46;93318.38;;;23.04;39.05
74336;BME280;62755;-33.398;-70.572;2023-10-09T01:01:22;93309.88;;;22.96;38.93
74336;BME280;62755;-33.398;-70.572;2023-10-09T01:03:55;93309.88;;;22.70;38.38
74336;BME280;62755;-33.398;-70.572;2023-10-09T01:06:26;93321.25;;;22.63;38.61
74336;BME280;62755;-33.398;-70.572;2023-10-09T01:09:00;93313.31;;;22.65;38.73
74336;BME280;62755;-33.398;-70.572;2023-10-09T01:11:38;93313.84;;;22.69;38.61
74336;BME280;62755;-33.398;-70.572;2023-10-09T01:14:16;93310.16;;;22.73;38.69
74336;BME280;62755;-33.398;-70.572;2023-10-09T01:16:48;93310.31;;;22.89;38.48
74336;BME280;62755;-33.398;-70.572;2023-10-09T01:19:21;93312.03;;;22.87;38.71
74336;BME280;62755;-33.398;-70.572;2023-10-09T01:21:54;93312.47;;;22.80;38.87
74336;BME280;62755;-33.398;-70.572;2023-10-09T01:24:31;93303.19;;;22.51;38.57
74336;BME280;62755;-33.398;-70.572;2023-10-09T01:27:06;93311.81;;;22.64;38.91
74336;BME280;62755;-33.398;-70.572;2023-10-09T01:29:42;93307.84;;;22.65;39.28
74336;BME280;62755;-33.398;-70.572;2023-10-09T01:32:13;93307.69;;;22.75;38.87
74336;BME280;62755;-33.398;-70.572;2023-10-09T01:34:45;93304.41;;;22.70;38.96
74336;BME280;62755;-33.398;-70.572;2023-10-09T01:37:18;93305.22;;;22.77;39.02
74336;BME280;62755;-33.398;-70.572;2023-10-09T01:39:51;93301.03;;;22.35;39.26
74336;BME280;62755;-33.398;-70.572;2023-10-09T01:42:25;93294.16;;;22.20;39.45
74336;BME280;62755;-33.398;-70.572;2023-10-09T01:45:01;93278.66;;;22.11;39.81
74336;BME280;62755;-33.398;-70.572;2023-10-09T01:47:37;93281.75;;;22.19;39.81
74336;BME280;62755;-33.398;-70.572;2023-10-09T01:50:08;93287.41;;;22.15;39.57
74336;BME280;62755;-33.398;-70.572;2023-10-09T01:52:47;93290.34;;;21.92;40.44
74336;BME280;62755;-33.398;-70.572;2023-10-09T01:55:18;93276.25;;;21.93;40.49
74336;BME280;62755;-33.398;-70.572;2023-10-09T01:58:01;93276.56;;;21.80;40.55
74336;BME280;62755;-33.398;-70.572;2023-10-09T02:00:32;93280.97;;;21.78;40.65
74336;BME280;62755;-33.398;-70.572;2023-10-09T02:03:09;93277.06;;;21.64;40.78
74336;BME280;62755;-33.398;-70.572;2023-10-09T02:05:50;93273.63;;;21.64;40.97
74336;BME280;62755;-33.398;-70.572;2023-10-09T02:08:20;93268.81;;;21.59;40.90
74336;BME280;62755;-33.398;-70.572;2023-10-09T02:10:55;93266.34;;;21.41;41.29
74336;BME280;62755;-33.398;-70.572;2023-10-09T02:13:25;93275.06;;;21.45;41.26
74336;BME280;62755;-33.398;-70.572;2023-10-09T02:16:01;93272.06;;;21.43;40.69
74336;BME280;62755;-33.398;-70.572;2023-10-09T02:18:42;93267.41;;;21.29;40.81
74336;BME280;62755;-33.398;-70.572;2023-10-09T02:21:23;93267.41;;;21.29;40.94
74336;BME280;62755;-33.398;-70.572;2023-10-09T02:24:01;93252.53;;;21.30;40.52
74336;BME280;62755;-33.398;-70.572;2023-10-09T02:26:34;93255.31;;;21.15;41.44
74336;BME280;62755;-33.398;-70.572;2023-10-09T02:29:29;93258.41;;;21.23;41.32
74336;BME280;62755;-33.398;-70.572;2023-10-09T02:32:02;93258.56;;;21.34;40.85
74336;BME280;62755;-33.398;-70.572;2023-10-09T02:34:40;93250.47;;;21.25;40.98
74336;BME280;62755;-33.398;-70.572;2023-10-09T02:37:13;93250.47;;;21.25;40.50
74336;BME280;62755;-33.398;-70.572;2023-10-09T02:39:50;93252.13;;;21.37;40.63
74336;BME280;62755;-33.398;-70.572;2023-10-09T02:42:21;93238.44;;;21.31;40.41
74336;BME280;62755;-33.398;-70.572;2023-10-09T02:44:55;93252.44;;;21.59;40.55
74336;BME280;62755;-33.398;-70.572;2023-10-09T02:47:26;93244.81;;;21.63;40.00
74336;BME280;62755;-33.398;-70.572;2023-10-09T02:50:05;93244.41;;;21.50;39.94
74336;BME280;62755;-33.398;-70.572;2023-10-09T02:52:46;93238.50;;;21.17;40.62
74336;BME280;62755;-33.398;-70.572;2023-10-09T02:55:20;93239.34;;;20.93;41.27
74336;BME280;62755;-33.398;-70.572;2023-10-09T02:57:55;93240.38;;;20.81;41.49
74336;BME280;62755;-33.398;-70.572;2023-10-09T03:00:33;93232.88;;;20.76;41.89
74336;BME280;62755;-33.398;-70.572;2023-10-09T03:03:04;93236.38;;;20.62;42.22
74336;BME280;62755;-33.398;-70.572;2023-10-09T03:05:35;93233.28;;;20.69;41.69
74336;BME280;62755;-33.398;-70.572;2023-10-09T03:08:09;93234.94;;;20.81;41.31
74336;BME280;62755;-33.398;-70.572;2023-10-09T03:10:39;93233.06;;;20.73;41.91
74336;BME280;62755;-33.398;-70.572;2023-10-09T03:13:10;93228.94;;;20.48;42.34
74336;BME280;62755;-33.398;-70.572;2023-10-09T03:15:41;93224.06;;;20.67;41.57
74336;BME280;62755;-33.398;-70.572;2023-10-09T03:18:11;93225.53;;;20.82;41.49
74336;BME280;62755;-33.398;-70.572;2023-10-09T03:20:41;93189.66;;;20.69;41.15
74336;BME280;62755;-33.398;-70.572;2023-10-09T03:23:11;93219.03;;;20.94;40.76
74336;BME280;62755;-33.398;-70.572;2023-10-09T03:25:42;93215.06;;;20.95;40.89
74336;BME280;62755;-33.398;-70.572;2023-10-09T03:28:14;93214.63;;;20.82;41.01
74336;BME280;62755;-33.398;-70.572;2023-10-09T03:30:43;93213.13;;;20.81;41.15
74336;BME280;62755;-33.398;-70.572;2023-10-09T03:33:14;93215.63;;;20.99;40.83
74336;BME280;62755;-33.398;-70.572;2023-10-09T03:35:44;93207.56;;;20.90;41.00
74336;BME280;62755;-33.398;-70.572;2023-10-09T03:38:13;93181.22;;;20.67;41.26
74336;BME280;62755;-33.398;-70.572;2023-10-09T03:40:45;93209.34;;;20.93;40.92
74336;BME280;62755;-33.398;-70.572;2023-10-09T03:43:16;93206.53;;;20.88;41.02
74336;BME280;62755;-33.398;-70.572;2023-10-09T03:45:46;93203.16;;;20.93;40.66
74336;BME280;62755;-33.398;-70.572;2023-10-09T03:48:19;93204.44;;;20.97;40.48
74336;BME280;62755;-33.398;-70.572;2023-10-09T03:50:53;93205.44;;;20.80;41.06
74336;BME280;62755;-33.398;-70.572;2023-10-09T03:53:35;93188.84;;;20.63;41.51
74336;BME280;62755;-33.398;-70.572;2023-10-09T03:56:07;93199.25;;;20.50;41.73
74336;BME280;62755;-33.398;-70.572;2023-10-09T03:58:43;93190.81;;;20.19;42.24
74336;BME280;62755;-33.398;-70.572;2023-10-09T04:01:13;93195.97;;;20.46;41.26
74336;BME280;62755;-33.398;-70.572;2023-10-09T04:03:50;93185.75;;;20.56;41.25
74336;BME280;62755;-33.398;-70.572;2023-10-09T04:06:22;93191.53;;;20.05;42.70
74336;BME280;62755;-33.398;-70.572;2023-10-09T04:08:55;93192.56;;;19.93;42.81
74336;BME280;62755;-33.398;-70.572;2023-10-09T04:11:26;93185.06;;;20.17;41.84
74336;BME280;62755;-33.398;-70.572;2023-10-09T04:13:57;93184.50;;;20.13;42.00
74336;BME280;62755;-33.398;-70.572;2023-10-09T04:16:27;93181.44;;;20.20;41.78
74336;BME280;62755;-33.398;-70.572;2023-10-09T04:19:18;93174.13;;;20.26;42.08
74336;BME280;62755;-33.398;-70.572;2023-10-09T04:21:49;93177.91;;;20.05;42.86
74336;BME280;62755;-33.398;-70.572;2023-10-09T04:24:17;93165.66;;;19.57;43.89
74336;BME280;62755;-33.398;-70.572;2023-10-09T04:26:52;93159.56;;;19.62;43.92
74336;BME280;62755;-33.398;-70.572;2023-10-09T04:29:25;93152.81;;;19.72;43.78
74336;BME280;62755;-33.398;-70.572;2023-10-09T04:32:06;93135.16;;;19.53;43.56
74336;BME280;62755;-33.398;-70.572;2023-10-09T04:34:42;93154.03;;;19.56;43.86
74336;BME280;62755;-33.398;-70.572;2023-10-09T04:37:22;93151.84;;;19.46;44.26
74336;BME280;62755;-33.398;-70.572;2023-10-09T04:40:04;93150.19;;;19.63;44.17
74336;BME280;62755;-33.398;-70.572;2023-10-09T04:42:54;93146.66;;;19.71;44.50
74336;BME280;62755;-33.398;-70.572;2023-10-09T04:45:28;93146.09;;;20.11;43.29
74336;BME280;62755;-33.398;-70.572;2023-10-09T04:48:14;93148.16;;;20.16;43.34
74336;BME280;62755;-33.398;-70.572;2023-10-09T04:50:59;93152.84;;;20.01;43.67
74336;BME280;62755;-33.398;-70.572;2023-10-09T04:53:45;93141.38;;;19.97;43.89
74336;BME280;62755;-33.398;-70.572;2023-10-09T04:56:22;93139.91;;;20.10;43.80
74336;BME280;62755;-33.398;-70.572;2023-10-09T04:58:51;93140.75;;;20.02;43.43
74336;BME280;62755;-33.398;-70.572;2023-10-09T05:01:32;93136.50;;;20.01;44.23
74336;BME280;62755;-33.398;-70.572;2023-10-09T05:04:10;93135.94;;;19.97;43.56
74336;BME280;62755;-33.398;-70.572;2023-10-09T05:06:56;93137.47;;;19.98;43.07
74336;BME280;62755;-33.398;-70.572;2023-10-09T05:09:24;93141.22;;;19.86;43.70
74336;BME280;62755;-33.398;-70.572;2023-10-09T05:12:14;93134.91;;;19.80;43.12
74336;BME280;62755;-33.398;-70.572;2023-10-09T05:14:43;93128.06;;;19.70;42.87
74336;BME280;62755;-33.398;-70.572;2023-10-09T05:17:37;93122.16;;;19.71;43.55
74336;BME280;62755;-33.398;-70.572;2023-10-09T05:20:07;93119.97;;;19.61;43.86
74336;BME280;62755;-33.398;-70.572;2023-10-09T05:22:49;93116.28;;;19.35;44.35
74336;BME280;62755;-33.398;-70.572;2023-10-09T05:25:48;93121.88;;;19.07;45.05
74336;BME280;62755;-33.398;-70.572;2023-10-09T05:28:25;93113.13;;;19.27;43.96
74336;BME280;62755;-33.398;-70.572;2023-10-09T05:31:08;93105.09;;;19.33;43.82
74336;BME280;62755;-33.398;-70.572;2023-10-09T05:33:44;93097.75;;;19.24;43.64
74336;BME280;62755;-33.398;-70.572;2023-10-09T05:36:13;93106.44;;;19.13;44.30
74336;BME280;62755;-33.398;-70.572;2023-10-09T05:39:02;93095.34;;;19.26;43.98
74336;BME280;62755;-33.398;-70.572;2023-10-09T05:41:49;93102.91;;;19.22;43.93
74336;BME280;62755;-33.398;-70.572;2023-10-09T05:44:26;93097.56;;;19.27;43.70
74336;BME280;62755;-33.398;-70.572;2023-10-09T05:47:12;93092.84;;;19.13;43.93
74336;BME280;62755;-33.398;-70.572;2023-10-09T05:49:59;93093.25;;;18.97;44.72
74336;BME280;62755;-33.398;-70.572;2023-10-09T05:52:41;93091.19;;;19.16;43.78
74336;BME280;62755;-33.398;-70.572;2023-10-09T05:55:32;93082.16;;;19.10;44.38
74336;BME280;62755;-33.398;-70.572;2023-10-09T05:58:29;93076.81;;;19.15;44.30
74336;BME280;62755;-33.398;-70.572;2023-10-09T06:01:15;93061.25;;;19.40;43.67
74336;BME280;62755;-33.398;-70.572;2023-10-09T06:04:00;93064.72;;;19.16;44.23
74336;BME280;62755;-33.398;-70.572;2023-10-09T06:06:44;93066.81;;;19.21;44.25
74336;BME280;62755;-33.398;-70.572;2023-10-09T06:09:14;93070.63;;;19.39;43.45
74336;BME280;62755;-33.398;-70.572;2023-10-09T06:12:12;93071.31;;;19.24;43.41
74336;BME280;62755;-33.398;-70.572;2023-10-09T06:14:57;93060.22;;;19.13;43.56
74336;BME280;62755;-33.398;-70.572;2023-10-09T06:17:46;93049.16;;;19.02;43.88
74336;BME280;62755;-33.398;-70.572;2023-10-09T06:20:17;93053.06;;;19.01;44.00
74336;BME280;62755;-33.398;-70.572;2023-10-09T06:23:04;93042.72;;;18.91;43.92
74336;BME280;62755;-33.398;-70.572;2023-10-09T06:25:44;93044.06;;;18.95;43.97
74336;BME280;62755;-33.398;-70.572;2023-10-09T06:28:18;93042.13;;;19.10;43.44
74336;BME280;62755;-33.398;-70.572;2023-10-09T06:31:00;93037.44;;;18.96;43.86
74336;BME280;62755;-33.398;-70.572;2023-10-09T06:33:51;93043.50;;;18.44;44.50
74336;BME280;62755;-33.398;-70.572;2023-10-09T06:36:36;93038.13;;;18.59;44.56
74336;BME280;62755;-33.398;-70.572;2023-10-09T06:39:21;93036.78;;;18.78;44.00
74336;BME280;62755;-33.398;-70.572;2023-10-09T06:42:07;93033.41;;;18.68;44.12
74336;BME280;62755;-33.398;-70.572;2023-10-09T06:45:00;93029.69;;;18.80;44.12
74336;BME280;62755;-33.398;-70.572;2023-10-09T06:47:31;93021.53;;;18.80;43.95
74336;BME280;62755;-33.398;-70.572;2023-10-09T06:50:08;93015.22;;;19.12;43.29
74336;BME280;62755;-33.398;-70.572;2023-10-09T06:52:52;93016.81;;;19.04;42.75
74336;BME280;62755;-33.398;-70.572;2023-10-09T06:55:42;93012.97;;;18.96;43.38
74336;BME280;62755;-33.398;-70.572;2023-10-09T06:58:17;93012.28;;;18.87;43.63
74336;BME280;62755;-33.398;-70.572;2023-10-09T07:00:50;93007.66;;;18.78;44.27
74336;BME280;62755;-33.398;-70.572;2023-10-09T07:03:44;93005.09;;;18.98;43.96
74336;BME280;62755;-33.398;-70.572;2023-10-09T07:06:27;93003.97;;;19.05;44.10
74336;BME280;62755;-33.398;-70.572;2023-10-09T07:09:13;93000.03;;;19.06;43.80
74336;BME280;62755;-33.398;-70.572;2023-10-09T07:11:50;92994.22;;;18.98;43.82
74336;BME280;62755;-33.398;-70.572;2023-10-09T07:14:30;92990.31;;;19.14;43.15
74336;BME280;62755;-33.398;-70.572;2023-10-09T07:17:31;92981.59;;;19.24;42.99
74336;BME280;62755;-33.398;-70.572;2023-10-09T07:20:15;92983.53;;;19.09;42.84
74336;BME280;62755;-33.398;-70.572;2023-10-09T07:23:03;92956.53;;;18.91;42.86
74336;BME280;62755;-33.398;-70.572;2023-10-09T07:25:44;92986.69;;;18.93;43.05
74336;BME280;62755;-33.398;-70.572;2023-10-09T07:28:29;92977.72;;;19.02;42.63
74336;BME280;62755;-33.398;-70.572;2023-10-09T07:31:03;92972.84;;;18.91;41.53
74336;BME280;62755;-33.398;-70.572;2023-10-09T07:33:36;92969.06;;;18.74;41.68
74336;BME280;62755;-33.398;-70.572;2023-10-09T07:36:33;92969.78;;;18.60;42.23
74336;BME280;62755;-33.398;-70.572;2023-10-09T07:39:05;92962.13;;;18.26;43.23
74336;BME280;62755;-33.398;-70.572;2023-10-09T07:41:44;92960.41;;;18.14;43.77
74336;BME280;62755;-33.398;-70.572;2023-10-09T07:44:23;92952.91;;;18.32;43.48
74336;BME280;62755;-33.398;-70.572;2023-10-09T07:47:10;92948.50;;;18.35;43.50
74336;BME280;62755;-33.398;-70.572;2023-10-09T07:49:46;92953.56;;;18.51;43.00
74336;BME280;62755;-33.398;-70.572;2023-10-09T07:52:23;92950.84;;;18.51;43.10
74336;BME280;62755;-33.398;-70.572;2023-10-09T07:54:53;92949.41;;;18.32;43.70
74336;BME280;62755;-33.398;-70.572;2023-10-09T07:57:28;92933.97;;;18.47;43.16
74336;BME280;62755;-33.398;-70.572;2023-10-09T08:00:06;92944.84;;;18.47;42.81
74336;BME280;62755;-33.398;-70.572;2023-10-09T08:03:03;92935.50;;;18.39;43.28
74336;BME280;62755;-33.398;-70.572;2023-10-09T08:05:50;92937.28;;;18.42;43.14
74336;BME280;62755;-33.398;-70.572;2023-10-09T08:08:35;92933.41;;;18.34;43.45
74336;BME280;62755;-33.398;-70.572;2023-10-09T08:11:31;92932.56;;;18.28;43.35
74336;BME280;62755;-33.398;-70.572;2023-10-09T08:14:22;92928.00;;;18.34;42.48
74336;BME280;62755;-33.398;-70.572;2023-10-09T08:17:10;92926.03;;;18.11;43.26
74336;BME280;62755;-33.398;-70.572;2023-10-09T08:19:48;92927.94;;;17.96;43.25
74336;BME280;62755;-33.398;-70.572;2023-10-09T08:22:25;92933.13;;;18.32;42.91
74336;BME280;62755;-33.398;-70.572;2023-10-09T08:25:12;92930.78;;;18.25;42.07
74336;BME280;62755;-33.398;-70.572;2023-10-09T08:27:55;92914.19;;;17.76;42.61
74336;BME280;62755;-33.398;-70.572;2023-10-09T08:30:48;92933.66;;;17.74;43.43
74336;BME280;62755;-33.398;-70.572;2023-10-09T08:33:17;92928.97;;;17.75;43.46
74336;BME280;62755;-33.398;-70.572;2023-10-09T08:36:03;92920.56;;;17.73;43.60
74336;BME280;62755;-33.398;-70.572;2023-10-09T08:38:34;92928.22;;;17.74;42.72
74336;BME280;62755;-33.398;-70.572;2023-10-09T08:41:11;92916.84;;;17.85;42.81
74336;BME280;62755;-33.398;-70.572;2023-10-09T08:43:49;92917.13;;;17.87;43.05
74336;BME280;62755;-33.398;-70.572;2023-10-09T08:46:23;92921.38;;;17.88;43.22
74336;BME280;62755;-33.398;-70.572;2023-10-09T08:48:55;92920.88;;;17.66;43.57
74336;BME280;62755;-33.398;-70.572;2023-10-09T08:51:25;92914.88;;;17.85;43.39
74336;BME280;62755;-33.398;-70.572;2023-10-09T08:53:55;92892.13;;;17.83;43.32
74336;BME280;62755;-33.398;-70.572;2023-10-09T08:56:26;92910.03;;;17.89;43.68
74336;BME280;62755;-33.398;-70.572;2023-10-09T08:58:57;92915.06;;;17.82;43.62
74336;BME280;62755;-33.398;-70.572;2023-10-09T09:01:28;92912.44;;;17.64;43.66
74336;BME280;62755;-33.398;-70.572;2023-10-09T09:03:59;92912.56;;;17.69;43.05
74336;BME280;62755;-33.398;-70.572;2023-10-09T09:06:37;92915.22;;;17.54;43.41
74336;BME280;62755;-33.398;-70.572;2023-10-09T09:09:13;92910.88;;;17.81;43.28
74336;BME280;62755;-33.398;-70.572;2023-10-09T09:11:45;92908.84;;;17.58;43.99
74336;BME280;62755;-33.398;-70.572;2023-10-09T09:14:17;92901.94;;;17.47;43.87
74336;BME280;62755;-33.398;-70.572;2023-10-09T09:16:49;92909.78;;;17.45;44.29
74336;BME280;62755;-33.398;-70.572;2023-10-09T09:19:19;92892.75;;;17.54;43.81
74336;BME280;62755;-33.398;-70.572;2023-10-09T09:21:59;92908.34;;;17.35;44.78
74336;BME280;62755;-33.398;-70.572;2023-10-09T09:24:38;92896.56;;;17.38;44.38
74336;BME280;62755;-33.398;-70.572;2023-10-09T09:27:14;92910.03;;;17.66;43.81
74336;BME280;62755;-33.398;-70.572;2023-10-09T09:29:47;92911.56;;;17.58;44.11
74336;BME280;62755;-33.398;-70.572;2023-10-09T09:32:31;92916.03;;;17.70;43.96
74336;BME280;62755;-33.398;-70.572;2023-10-09T09:35:05;92908.66;;;17.94;43.45
74336;BME280;62755;-33.398;-70.572;2023-10-09T09:37:52;92912.41;;;17.73;44.05
74336;BME280;62755;-33.398;-70.572;2023-10-09T09:40:29;92912.72;;;17.75;43.49
74336;BME280;62755;-33.398;-70.572;2023-10-09T09:43:02;92894.69;;;17.63;43.58
74336;BME280;62755;-33.398;-70.572;2023-10-09T09:45:37;92909.56;;;17.91;43.90
74336;BME280;62755;-33.398;-70.572;2023-10-09T09:48:16;92916.28;;;17.81;44.74
74336;BME280;62755;-33.398;-70.572;2023-10-09T09:50:46;92922.56;;;17.87;44.06
74336;BME280;62755;-33.398;-70.572;2023-10-09T09:53:16;92930.75;;;17.78;44.55
74336;BME280;62755;-33.398;-70.572;2023-10-09T09:55:51;92918.59;;;17.97;43.70
74336;BME280;62755;-33.398;-70.572;2023-10-09T09:58:25;92918.84;;;18.08;43.50
74336;BME280;62755;-33.398;-70.572;2023-10-09T10:01:03;92918.59;;;17.97;43.49
74336;BME280;62755;-33.398;-70.572;2023-10-09T10:03:46;92922.13;;;17.88;43.32
74336;BME280;62755;-33.398;-70.572;2023-10-09T10:06:19;92917.28;;;17.92;43.10
74336;BME280;62755;-33.398;-70.572;2023-10-09T10:08:49;92923.94;;;17.49;43.53
74336;BME280;62755;-33.398;-70.572;2023-10-09T10:11:49;92916.78;;;17.28;43.92
74336;BME280;62755;-33.398;-70.572;2023-10-09T10:14:20;92927.31;;;17.35;44.20
74336;BME280;62755;-33.398;-70.572;2023-10-09T10:17:03;92927.09;;;17.48;44.45
74336;BME280;62755;-33.398;-70.572;2023-10-09T10:20:01;92923.84;;;17.35;44.35
74336;BME280;62755;-33.398;-70.572;2023-10-09T10:22:51;92930.38;;;17.10;44.28
74336;BME280;62755;-33.398;-70.572;2023-10-09T10:25:34;92919.00;;;16.88;44.88
74336;BME280;62755;-33.398;-70.572;2023-10-09T10:28:17;92924.25;;;16.83;45.22
74336;BME280;62755;-33.398;-70.572;2023-10-09T10:30:57;92928.38;;;17.20;44.25
74336;BME280;62755;-33.398;-70.572;2023-10-09T10:34:06;92937.59;;;17.13;43.93
74336;BME280;62755;-33.398;-70.572;2023-10-09T10:36:39;92927.97;;;17.12;44.55
74336;BME280;62755;-33.398;-70.572;2023-10-09T10:39:11;92936.44;;;17.47;43.92
74336;BME280;62755;-33.398;-70.572;2023-10-09T10:41:54;92939.81;;;17.24;44.49
74336;BME280;62755;-33.398;-70.572;2023-10-09T10:44:28;92953.25;;;17.18;44.08
74336;BME280;62755;-33.398;-70.572;2023-10-09T10:47:07;92948.38;;;17.40;44.02
74336;BME280;62755;-33.398;-70.572;2023-10-09T10:49:50;92955.72;;;17.58;43.41
74336;BME280;62755;-33.398;-70.572;2023-10-09T10:52:25;92959.19;;;17.59;43.77
74336;BME280;62755;-33.398;-70.572;2023-10-09T10:55:09;92963.56;;;17.47;43.20
74336;BME280;62755;-33.398;-70.572;2023-10-09T10:58:01;92955.13;;;17.45;42.92
74336;BME280;62755;-33.398;-70.572;2023-10-09T11:00:36;92980.56;;;17.57;42.65
74336;BME280;62755;-33.398;-70.572;2023-10-09T11:03:24;92979.41;;;17.30;43.60
74336;BME280;62755;-33.398;-70.572;2023-10-09T11:06:03;92984.22;;;17.35;43.83
74336;BME280;62755;-33.398;-70.572;2023-10-09T11:08:44;92966.88;;;17.42;43.87
74336;BME280;62755;-33.398;-70.572;2023-10-09T11:11:21;92985.69;;;17.54;43.70
74336;BME280;62755;-33.398;-70.572;2023-10-09T11:14:08;92973.97;;;17.48;43.25
74336;BME280;62755;-33.398;-70.572;2023-10-09T11:16:41;92966.44;;;17.52;43.24
74336;BME280;62755;-33.398;-70.572;2023-10-09T11:19:22;92983.28;;;17.57;43.78
74336;BME280;62755;-33.398;-70.572;2023-10-09T11:22:07;92979.69;;;17.50;43.26
74336;BME280;62755;-33.398;-70.572;2023-10-09T11:24:57;92985.47;;;17.25;43.81
74336;BME280;62755;-33.398;-70.572;2023-10-09T11:27:40;92982.72;;;17.34;43.84
74336;BME280;62755;-33.398;-70.572;2023-10-09T11:30:18;92986.88;;;17.63;43.53
74336;BME280;62755;-33.398;-70.572;2023-10-09T11:33:06;92984.72;;;17.76;42.86
74336;BME280;62755;-33.398;-70.572;2023-10-09T11:35:54;92980.63;;;17.80;43.43
74336;BME280;62755;-33.398;-70.572;2023-10-09T11:38:24;92978.69;;;17.72;43.30
74336;BME280;62755;-33.398;-70.572;2023-10-09T11:40:55;92979.63;;;17.69;43.40
74336;BME280;62755;-33.398;-70.572;2023-10-09T11:43:49;92999.22;;;17.64;44.22
74336;BME280;62755;-33.398;-70.572;2023-10-09T11:46:24;92996.91;;;17.80;43.62
74336;BME280;62755;-33.398;-70.572;2023-10-09T11:49:05;92995.16;;;18.01;43.24
74336;BME280;62755;-33.398;-70.572;2023-10-09T11:52:08;92992.13;;;17.99;43.18
74336;BME280;62755;-33.398;-70.572;2023-10-09T11:54:54;92989.47;;;17.90;43.25
74336;BME280;62755;-33.398;-70.572;2023-10-09T11:57:24;92994.16;;;17.89;43.54
74336;BME280;62755;-33.398;-70.572;2023-10-09T12:00:01;92991.22;;;18.02;42.79
74336;BME280;62755;-33.398;-70.572;2023-10-09T12:02:37;92958.75;;;17.84;43.09
74336;BME280;62755;-33.398;-70.572;2023-10-09T12:05:11;92999.41;;;17.93;43.58
74336;BME280;62755;-33.398;-70.572;2023-10-09T12:07:46;92998.31;;;17.99;43.67
74336;BME280;62755;-33.398;-70.572;2023-10-09T12:10:18;93008.63;;;18.19;43.20
74336;BME280;62755;-33.398;-70.572;2023-10-09T12:12:51;93012.50;;;18.27;42.55
74336;BME280;62755;-33.398;-70.572;2023-10-09T12:15:21;93002.28;;;18.22;42.77
74336;BME280;62755;-33.398;-70.572;2023-10-09T12:17:51;93000.28;;;18.31;42.46
74336;BME280;62755;-33.398;-70.572;2023-10-09T12:20:22;93005.16;;;18.51;42.03
74336;BME280;62755;-33.398;-70.572;2023-10-09T12:23:01;92994.50;;;18.62;41.88
74336;BME280;62755;-33.398;-70.572;2023-10-09T12:25:32;93005.56;;;18.73;41.68
74336;BME280;62755;-33.398;-70.572;2023-10-09T12:28:02;93000.00;;;18.91;40.94
74336;BME280;62755;-33.398;-70.572;2023-10-09T12:30:32;93000.72;;;18.77;40.79
74336;BME280;62755;-33.398;-70.572;2023-10-09T12:33:07;92997.56;;;18.93;40.63
74336;BME280;62755;-33.398;-70.572;2023-10-09T12:35:40;92996.28;;;19.03;40.73
74336;BME280;62755;-33.398;-70.572;2023-10-09T12:38:14;92992.38;;;19.04;40.57
74336;BME280;62755;-33.398;-70.572;2023-10-09T12:40:49;92998.72;;;19.01;41.02
74336;BME280;62755;-33.398;-70.572;2023-10-09T12:43:21;92995.91;;;19.10;40.68
74336;BME280;62755;-33.398;-70.572;2023-10-09T12:45:53;92993.84;;;19.05;41.03
74336;BME280;62755;-33.398;-70.572;2023-10-09T12:48:24;92995.38;;;19.06;40.97
74336;BME280;62755;-33.398;-70.572;2023-10-09T12:50:54;92986.34;;;19.00;41.07
74336;BME280;62755;-33.398;-70.572;2023-10-09T12:53:26;92991.59;;;19.18;40.90
74336;BME280;62755;-33.398;-70.572;2023-10-09T12:55:56;92981.88;;;19.26;41.13
74336;BME280;62755;-33.398;-70.572;2023-10-09T12:58:25;92981.53;;;19.34;40.76
74336;BME280;62755;-33.398;-70.572;2023-10-09T13:00:55;92985.09;;;19.40;40.50
74336;BME280;62755;-33.398;-70.572;2023-10-09T13:03:36;92977.38;;;19.38;39.91
74336;BME280;62755;-33.398;-70.572;2023-10-09T13:06:06;92980.03;;;19.47;39.45
74336;BME280;62755;-33.398;-70.572;2023-10-09T13:08:39;92978.16;;;19.39;39.45
74336;BME280;62755;-33.398;-70.572;2023-10-09T13:11:10;92977.94;;;19.27;39.04
74336;BME280;62755;-33.398;-70.572;2023-10-09T13:13:44;92979.66;;;19.40;39.49
74336;BME280;62755;-33.398;-70.572;2023-10-09T13:16:15;92976.38;;;19.50;39.54
74336;BME280;62755;-33.398;-70.572;2023-10-09T13:18:50;92972.34;;;19.46;39.72
74336;BME280;62755;-33.398;-70.572;2023-10-09T13:21:20;92968.00;;;19.54;39.89
74336;BME280;62755;-33.398;-70.572;2023-10-09T13:23:52;92965.28;;;19.54;39.98